Artie, WV (25008)

4:51 PM EST on March 01, 2015 (GMT -0500)
Fairdale | Change Station
CLOSE
Current Station
Personal Weather Station
Location: Lester, WV
Elevation: 1938 ft
Nearby Weather Stations

Elev 1938 ft 37.74 °N, 81.35 °W | Updated 7 seconds ago

Mostly Cloudy
Mostly Cloudy
44.1 °F
Feels Like 44 °F
N
0.0
Wind Variable Wind from NW
Gusts 0.0 mph

Today
High -- | Low -- °F
--% Chance of Precip.
Yesterday
High -- | Low -- °F
Precip. -- in
6:57 AM 6:18 PM
Waxing Gibbous, 87% visible
Pressure 30.25 in
Visibility 7.0 miles
Clouds Scattered Clouds 1100 ft
Mostly Cloudy 6000 ft
Overcast 7500 ft
Windchill 44 °F
Dew Point 38 °F
Humidity 79%
Rainfall 0.08 in
Snow Depth Not available.
UV 0 out of 12
Pollen 1.60 out of 12
Air Quality Not available.
Flu Activity Not available.
SPECI KBKW 012122Z AUTO 18006KT 7SM -RA SCT011 BKN060 OVC075 05/04 A3025 RMK AO2 P0003 T00500039

More Conditions Fewer Conditions

Pressure 30.25 in
Visibility 7.0 miles
Clouds Scattered Clouds 1100 ft
Mostly Cloudy 6000 ft
Overcast 7500 ft
Windchill 44 °F
Dew Point 38 °F
Humidity 79%
Rainfall 0.08 in
Snow Depth Not available.
UV 0 out of 12
Pollen 1.60 out of 12
Air Quality Not available.
Flu Activity Not available.
SPECI KBKW 012122Z AUTO 18006KT 7SM -RA SCT011 BKN060 OVC075 05/04 A3025 RMK AO2 P0003 T00500039

More Conditions Fewer Conditions

10-Day Weather Forecast

Almanac

Astronomy

Mar. 01, 2015 Rise Set
Actual Time
Civil Twilight
Nautical Twilight
Astronomical Twilight
Moon
Length of Visible Light
Length of Day
Tomorrow will be .
, % of the Moon is Illuminated

Today's Extremes

State Highs State Lows

Community

WunderPhotos

Upload Photos

1,801,577 photos uploaded!

WunderBlogs® & News

Nearby

Air Quality

  Air Quality AQ Index Pollutant
Not available.

Snow Depth

Station Depth Elevation

Earthquake Activity

City Distance Mag. Time & Date
Minimum magnitude displayed is 2.5.

Coastal Water Temperatures

Place Temperature

Nearby Weather Stations